sensor_id;sensor_type;location;lat;lon;timestamp;P1;durP1;ratioP1;P2;durP2;ratioP2
38053;SDS011;23859;50.672;7.164;2023-12-20T00:00:22;1267.47;;;999.90;;
38053;SDS011;23859;50.672;7.164;2023-12-20T00:02:48;1220.68;;;999.90;;
38053;SDS011;23859;50.672;7.164;2023-12-20T00:05:14;1205.90;;;999.90;;
38053;SDS011;23859;50.672;7.164;2023-12-20T00:07:41;1238.68;;;999.90;;
38053;SDS011;23859;50.672;7.164;2023-12-20T00:10:07;1227.72;;;999.90;;
38053;SDS011;23859;50.672;7.164;2023-12-20T00:12:37;1244.95;;;999.90;;
38053;SDS011;23859;50.672;7.164;2023-12-20T00:15:04;1217.95;;;999.90;;
38053;SDS011;23859;50.672;7.164;2023-12-20T00:17:30;1217.05;;;999.90;;
38053;SDS011;23859;50.672;7.164;2023-12-20T00:19:56;1231.80;;;999.90;;
38053;SDS011;23859;50.672;7.164;2023-12-20T00:22:22;1225.68;;;999.90;;
38053;SDS011;23859;50.672;7.164;2023-12-20T00:24:51;1210.00;;;999.90;;
38053;SDS011;23859;50.672;7.164;2023-12-20T00:27:17;1190.32;;;999.90;;
38053;SDS011;23859;50.672;7.164;2023-12-20T00:29:43;1200.72;;;999.90;;
38053;SDS011;23859;50.672;7.164;2023-12-20T00:32:12;1212.38;;;999.90;;
38053;SDS011;23859;50.672;7.164;2023-12-20T00:34:41;1215.97;;;999.90;;
38053;SDS011;23859;50.672;7.164;2023-12-20T00:37:08;1208.95;;;999.90;;
38053;SDS011;23859;50.672;7.164;2023-12-20T00:39:34;1214.80;;;999.90;;
38053;SDS011;23859;50.672;7.164;2023-12-20T00:42:00;1225.63;;;999.90;;
38053;SDS011;23859;50.672;7.164;2023-12-20T00:44:29;1226.28;;;999.90;;
38053;SDS011;23859;50.672;7.164;2023-12-20T00:46:55;1231.28;;;999.90;;
38053;SDS011;23859;50.672;7.164;2023-12-20T00:49:21;1216.30;;;999.90;;
38053;SDS011;23859;50.672;7.164;2023-12-20T00:51:47;1229.72;;;999.90;;
38053;SDS011;23859;50.672;7.164;2023-12-20T00:54:19;1229.00;;;999.90;;
38053;SDS011;23859;50.672;7.164;2023-12-20T00:56:45;1259.00;;;999.90;;
38053;SDS011;23859;50.672;7.164;2023-12-20T00:59:11;1201.78;;;999.90;;
38053;SDS011;23859;50.672;7.164;2023-12-20T01:01:38;1265.68;;;999.90;;
38053;SDS011;23859;50.672;7.164;2023-12-20T01:04:04;1230.53;;;999.90;;
38053;SDS011;23859;50.672;7.164;2023-12-20T01:06:30;1252.05;;;999.90;;
38053;SDS011;23859;50.672;7.164;2023-12-20T01:08:56;1260.93;;;999.90;;
38053;SDS011;23859;50.672;7.164;2023-12-20T01:11:22;1250.65;;;999.90;;
38053;SDS011;23859;50.672;7.164;2023-12-20T01:13:48;1226.97;;;999.90;;
38053;SDS011;23859;50.672;7.164;2023-12-20T01:16:14;1256.05;;;999.90;;
38053;SDS011;23859;50.672;7.164;2023-12-20T01:18:40;1243.57;;;999.90;;
38053;SDS011;23859;50.672;7.164;2023-12-20T01:21:06;1213.97;;;999.90;;
38053;SDS011;23859;50.672;7.164;2023-12-20T01:23:32;1235.95;;;999.90;;
38053;SDS011;23859;50.672;7.164;2023-12-20T01:26:00;1217.90;;;999.90;;
38053;SDS011;23859;50.672;7.164;2023-12-20T01:28:27;1223.85;;;999.90;;
38053;SDS011;23859;50.672;7.164;2023-12-20T01:30:53;1260.30;;;999.90;;
38053;SDS011;23859;50.672;7.164;2023-12-20T01:33:19;1249.07;;;999.90;;
38053;SDS011;23859;50.672;7.164;2023-12-20T01:35:45;1261.20;;;999.90;;
38053;SDS011;23859;50.672;7.164;2023-12-20T01:38:12;1249.07;;;999.90;;
38053;SDS011;23859;50.672;7.164;2023-12-20T01:40:38;1230.10;;;999.90;;
38053;SDS011;23859;50.672;7.164;2023-12-20T01:43:07;1254.03;;;999.90;;
38053;SDS011;23859;50.672;7.164;2023-12-20T01:45:34;1250.32;;;999.90;;
38053;SDS011;23859;50.672;7.164;2023-12-20T01:48:00;1221.13;;;999.90;;
38053;SDS011;23859;50.672;7.164;2023-12-20T01:50:28;1231.68;;;999.90;;
38053;SDS011;23859;50.672;7.164;2023-12-20T01:52:55;1202.88;;;999.90;;
38053;SDS011;23859;50.672;7.164;2023-12-20T01:55:23;1219.50;;;999.90;;
38053;SDS011;23859;50.672;7.164;2023-12-20T01:57:50;1228.65;;;999.90;;
38053;SDS011;23859;50.672;7.164;2023-12-20T02:00:19;1208.35;;;999.90;;
38053;SDS011;23859;50.672;7.164;2023-12-20T02:02:51;1210.22;;;999.90;;
38053;SDS011;23859;50.672;7.164;2023-12-20T02:05:19;1181.53;;;999.90;;
38053;SDS011;23859;50.672;7.164;2023-12-20T02:07:47;1227.75;;;999.90;;
38053;SDS011;23859;50.672;7.164;2023-12-20T02:10:13;1182.15;;;999.90;;
38053;SDS011;23859;50.672;7.164;2023-12-20T02:12:40;1206.18;;;999.90;;
38053;SDS011;23859;50.672;7.164;2023-12-20T02:15:06;1190.55;;;999.90;;
38053;SDS011;23859;50.672;7.164;2023-12-20T02:17:33;1243.65;;;999.90;;
38053;SDS011;23859;50.672;7.164;2023-12-20T02:20:06;1255.03;;;999.90;;
38053;SDS011;23859;50.672;7.164;2023-12-20T02:22:35;1183.78;;;999.90;;
38053;SDS011;23859;50.672;7.164;2023-12-20T02:25:01;1199.15;;;999.90;;
38053;SDS011;23859;50.672;7.164;2023-12-20T02:27:27;1213.97;;;999.90;;
38053;SDS011;23859;50.672;7.164;2023-12-20T02:29:54;1198.57;;;999.90;;
38053;SDS011;23859;50.672;7.164;2023-12-20T02:32:20;1225.28;;;999.90;;
38053;SDS011;23859;50.672;7.164;2023-12-20T02:34:48;1191.28;;;999.90;;
38053;SDS011;23859;50.672;7.164;2023-12-20T02:37:14;1241.45;;;999.90;;
38053;SDS011;23859;50.672;7.164;2023-12-20T02:39:40;1167.03;;;999.90;;
38053;SDS011;23859;50.672;7.164;2023-12-20T02:42:07;1191.85;;;999.90;;
38053;SDS011;23859;50.672;7.164;2023-12-20T02:44:33;1239.45;;;999.90;;
38053;SDS011;23859;50.672;7.164;2023-12-20T02:46:59;1187.97;;;999.90;;
38053;SDS011;23859;50.672;7.164;2023-12-20T02:49:25;1222.53;;;999.90;;
38053;SDS011;23859;50.672;7.164;2023-12-20T02:51:53;1201.40;;;999.90;;
38053;SDS011;23859;50.672;7.164;2023-12-20T02:54:20;1227.10;;;999.90;;
38053;SDS011;23859;50.672;7.164;2023-12-20T02:56:46;1361.18;;;999.90;;
38053;SDS011;23859;50.672;7.164;2023-12-20T02:59:12;1179.88;;;999.90;;
38053;SDS011;23859;50.672;7.164;2023-12-20T03:01:46;1158.38;;;999.90;;
38053;SDS011;23859;50.672;7.164;2023-12-20T03:04:12;1154.88;;;999.90;;
38053;SDS011;23859;50.672;7.164;2023-12-20T03:06:38;1181.82;;;999.90;;
38053;SDS011;23859;50.672;7.164;2023-12-20T03:09:04;1140.65;;;999.90;;
38053;SDS011;23859;50.672;7.164;2023-12-20T03:11:30;1182.45;;;999.90;;
38053;SDS011;23859;50.672;7.164;2023-12-20T03:13:56;1376.03;;;999.90;;
38053;SDS011;23859;50.672;7.164;2023-12-20T03:16:23;1177.93;;;999.90;;
38053;SDS011;23859;50.672;7.164;2023-12-20T03:18:49;1146.75;;;999.90;;
38053;SDS011;23859;50.672;7.164;2023-12-20T03:21:15;1157.00;;;999.90;;
38053;SDS011;23859;50.672;7.164;2023-12-20T03:23:41;1384.25;;;999.90;;
38053;SDS011;23859;50.672;7.164;2023-12-20T03:26:08;1179.18;;;999.90;;
38053;SDS011;23859;50.672;7.164;2023-12-20T03:28:34;1180.20;;;999.90;;
38053;SDS011;23859;50.672;7.164;2023-12-20T03:31:02;1141.35;;;999.90;;
38053;SDS011;23859;50.672;7.164;2023-12-20T03:33:28;1178.53;;;999.90;;
38053;SDS011;23859;50.672;7.164;2023-12-20T03:35:54;1169.22;;;999.90;;
38053;SDS011;23859;50.672;7.164;2023-12-20T03:38:20;1999.90;;;999.90;;
38053;SDS011;23859;50.672;7.164;2023-12-20T03:40:48;1178.95;;;999.90;;
38053;SDS011;23859;50.672;7.164;2023-12-20T03:43:15;1175.68;;;999.90;;
38053;SDS011;23859;50.672;7.164;2023-12-20T03:45:44;1152.85;;;999.90;;
38053;SDS011;23859;50.672;7.164;2023-12-20T03:48:19;1160.43;;;999.90;;
38053;SDS011;23859;50.672;7.164;2023-12-20T03:50:45;1122.80;;;999.90;;
38053;SDS011;23859;50.672;7.164;2023-12-20T03:53:12;1140.05;;;999.90;;
38053;SDS011;23859;50.672;7.164;2023-12-20T03:55:38;1153.30;;;999.90;;
38053;SDS011;23859;50.672;7.164;2023-12-20T03:58:07;1198.15;;;999.90;;
38053;SDS011;23859;50.672;7.164;2023-12-20T04:00:33;1595.72;;;999.90;;
38053;SDS011;23859;50.672;7.164;2023-12-20T04:02:59;1203.75;;;999.90;;
38053;SDS011;23859;50.672;7.164;2023-12-20T04:05:25;1164.38;;;999.90;;
38053;SDS011;23859;50.672;7.164;2023-12-20T04:07:51;1218.88;;;999.90;;
38053;SDS011;23859;50.672;7.164;2023-12-20T04:10:17;1191.10;;;999.90;;
38053;SDS011;23859;50.672;7.164;2023-12-20T04:12:43;1197.45;;;999.90;;
38053;SDS011;23859;50.672;7.164;2023-12-20T04:15:09;1192.40;;;999.90;;
38053;SDS011;23859;50.672;7.164;2023-12-20T04:17:38;1236.68;;;999.90;;
38053;SDS011;23859;50.672;7.164;2023-12-20T04:20:04;1204.22;;;999.90;;
38053;SDS011;23859;50.672;7.164;2023-12-20T04:22:30;1244.35;;;999.90;;
38053;SDS011;23859;50.672;7.164;2023-12-20T04:24:56;1204.78;;;999.90;;
38053;SDS011;23859;50.672;7.164;2023-12-20T04:27:22;1155.75;;;999.90;;
38053;SDS011;23859;50.672;7.164;2023-12-20T04:29:48;1207.50;;;999.90;;
38053;SDS011;23859;50.672;7.164;2023-12-20T04:32:14;1231.97;;;999.90;;
38053;SDS011;23859;50.672;7.164;2023-12-20T04:34:40;1207.35;;;999.90;;
38053;SDS011;23859;50.672;7.164;2023-12-20T04:37:06;1236.28;;;999.90;;
38053;SDS011;23859;50.672;7.164;2023-12-20T04:39:32;1229.10;;;999.90;;
38053;SDS011;23859;50.672;7.164;2023-12-20T04:41:58;1213.60;;;999.90;;
38053;SDS011;23859;50.672;7.164;2023-12-20T04:44:25;1253.97;;;999.90;;
38053;SDS011;23859;50.672;7.164;2023-12-20T04:46:53;1207.07;;;999.90;;
38053;SDS011;23859;50.672;7.164;2023-12-20T04:49:21;1208.78;;;999.90;;
38053;SDS011;23859;50.672;7.164;2023-12-20T04:51:47;1186.40;;;999.90;;
38053;SDS011;23859;50.672;7.164;2023-12-20T04:54:14;1186.57;;;999.90;;
38053;SDS011;23859;50.672;7.164;2023-12-20T04:56:42;1150.03;;;999.90;;
38053;SDS011;23859;50.672;7.164;2023-12-20T04:59:08;1177.80;;;999.90;;
38053;SDS011;23859;50.672;7.164;2023-12-20T05:01:35;1205.85;;;999.90;;
38053;SDS011;23859;50.672;7.164;2023-12-20T05:04:01;1196.80;;;999.90;;
38053;SDS011;23859;50.672;7.164;2023-12-20T05:06:27;1236.40;;;999.90;;
38053;SDS011;23859;50.672;7.164;2023-12-20T05:08:55;1423.63;;;999.90;;
38053;SDS011;23859;50.672;7.164;2023-12-20T05:11:21;1217.82;;;999.90;;
38053;SDS011;23859;50.672;7.164;2023-12-20T05:13:47;1210.10;;;999.90;;
38053;SDS011;23859;50.672;7.164;2023-12-20T05:16:13;1193.95;;;999.90;;
38053;SDS011;23859;50.672;7.164;2023-12-20T05:18:40;1229.97;;;999.90;;
38053;SDS011;23859;50.672;7.164;2023-12-20T05:21:06;1196.60;;;999.90;;
38053;SDS011;23859;50.672;7.164;2023-12-20T05:23:32;1218.68;;;999.90;;
38053;SDS011;23859;50.672;7.164;2023-12-20T05:25:58;1195.00;;;999.90;;
38053;SDS011;23859;50.672;7.164;2023-12-20T05:28:24;1179.43;;;999.90;;
38053;SDS011;23859;50.672;7.164;2023-12-20T05:30:52;1208.60;;;999.90;;
38053;SDS011;23859;50.672;7.164;2023-12-20T05:33:19;1209.95;;;999.90;;
38053;SDS011;23859;50.672;7.164;2023-12-20T05:35:45;1206.75;;;999.90;;
38053;SDS011;23859;50.672;7.164;2023-12-20T05:38:11;1222.75;;;999.90;;
38053;SDS011;23859;50.672;7.164;2023-12-20T05:40:40;1233.40;;;999.90;;
38053;SDS011;23859;50.672;7.164;2023-12-20T05:43:06;1175.07;;;999.90;;
38053;SDS011;23859;50.672;7.164;2023-12-20T05:45:32;1193.90;;;999.90;;
38053;SDS011;23859;50.672;7.164;2023-12-20T05:47:58;1183.60;;;999.90;;
38053;SDS011;23859;50.672;7.164;2023-12-20T05:50:24;1206.63;;;999.90;;
38053;SDS011;23859;50.672;7.164;2023-12-20T05:52:50;1179.10;;;999.90;;
38053;SDS011;23859;50.672;7.164;2023-12-20T05:55:16;1168.45;;;999.90;;
38053;SDS011;23859;50.672;7.164;2023-12-20T05:57:42;1156.53;;;999.90;;
38053;SDS011;23859;50.672;7.164;2023-12-20T06:00:09;1186.35;;;999.90;;
38053;SDS011;23859;50.672;7.164;2023-12-20T06:02:38;1190.63;;;999.90;;
38053;SDS011;23859;50.672;7.164;2023-12-20T06:05:05;1210.90;;;999.90;;
38053;SDS011;23859;50.672;7.164;2023-12-20T06:07:31;1213.82;;;999.90;;
38053;SDS011;23859;50.672;7.164;2023-12-20T06:09:57;1194.97;;;999.90;;
38053;SDS011;23859;50.672;7.164;2023-12-20T06:12:23;1206.75;;;999.90;;
38053;SDS011;23859;50.672;7.164;2023-12-20T06:14:51;1179.82;;;999.90;;
38053;SDS011;23859;50.672;7.164;2023-12-20T06:17:17;1176.63;;;999.90;;
38053;SDS011;23859;50.672;7.164;2023-12-20T06:19:46;1590.50;;;999.90;;
38053;SDS011;23859;50.672;7.164;2023-12-20T06:22:13;1180.95;;;999.90;;
38053;SDS011;23859;50.672;7.164;2023-12-20T06:24:40;1215.57;;;999.90;;
38053;SDS011;23859;50.672;7.164;2023-12-20T06:27:06;1154.72;;;999.90;;
38053;SDS011;23859;50.672;7.164;2023-12-20T06:29:32;1213.85;;;999.90;;
38053;SDS011;23859;50.672;7.164;2023-12-20T06:32:02;1189.20;;;999.90;;
38053;SDS011;23859;50.672;7.164;2023-12-20T06:34:29;1214.82;;;999.90;;
38053;SDS011;23859;50.672;7.164;2023-12-20T06:36:55;1441.90;;;999.90;;
38053;SDS011;23859;50.672;7.164;2023-12-20T06:39:21;1226.45;;;999.90;;
38053;SDS011;23859;50.672;7.164;2023-12-20T06:41:47;1189.50;;;999.90;;
38053;SDS011;23859;50.672;7.164;2023-12-20T06:44:13;1188.72;;;999.90;;
38053;SDS011;23859;50.672;7.164;2023-12-20T06:46:39;1232.45;;;999.90;;
38053;SDS011;23859;50.672;7.164;2023-12-20T06:49:05;1188.05;;;999.90;;
38053;SDS011;23859;50.672;7.164;2023-12-20T06:51:31;1236.28;;;999.90;;
38053;SDS011;23859;50.672;7.164;2023-12-20T06:53:57;1206.35;;;999.90;;
38053;SDS011;23859;50.672;7.164;2023-12-20T06:56:25;846.17;;;767.55;;
38053;SDS011;23859;50.672;7.164;2023-12-20T06:58:51;1183.22;;;999.90;;
38053;SDS011;23859;50.672;7.164;2023-12-20T07:01:17;1197.63;;;999.90;;
38053;SDS011;23859;50.672;7.164;2023-12-20T07:03:43;1229.40;;;999.90;;
38053;SDS011;23859;50.672;7.164;2023-12-20T07:06:09;1192.65;;;999.90;;
38053;SDS011;23859;50.672;7.164;2023-12-20T07:08:35;1208.22;;;999.90;;
38053;SDS011;23859;50.672;7.164;2023-12-20T07:11:01;1207.55;;;999.90;;
38053;SDS011;23859;50.672;7.164;2023-12-20T07:13:27;1235.20;;;999.90;;
38053;SDS011;23859;50.672;7.164;2023-12-20T07:15:54;1232.05;;;999.90;;
38053;SDS011;23859;50.672;7.164;2023-12-20T07:18:20;1210.60;;;999.90;;
38053;SDS011;23859;50.672;7.164;2023-12-20T07:20:46;1200.00;;;999.90;;
38053;SDS011;23859;50.672;7.164;2023-12-20T07:23:13;1203.60;;;999.90;;
38053;SDS011;23859;50.672;7.164;2023-12-20T07:25:39;1199.90;;;999.90;;
38053;SDS011;23859;50.672;7.164;2023-12-20T07:28:05;1218.00;;;999.90;;
38053;SDS011;23859;50.672;7.164;2023-12-20T07:30:33;1227.93;;;999.90;;
38053;SDS011;23859;50.672;7.164;2023-12-20T07:33:04;1220.40;;;999.90;;
38053;SDS011;23859;50.672;7.164;2023-12-20T07:35:33;1241.35;;;999.90;;
38053;SDS011;23859;50.672;7.164;2023-12-20T07:37:59;1229.40;;;999.90;;
38053;SDS011;23859;50.672;7.164;2023-12-20T07:40:27;1229.88;;;999.90;;
38053;SDS011;23859;50.672;7.164;2023-12-20T07:42:53;1226.45;;;999.90;;
38053;SDS011;23859;50.672;7.164;2023-12-20T07:45:19;1237.25;;;999.90;;
38053;SDS011;23859;50.672;7.164;2023-12-20T07:47:46;1223.22;;;999.90;;
38053;SDS011;23859;50.672;7.164;2023-12-20T07:50:12;1240.07;;;999.90;;
38053;SDS011;23859;50.672;7.164;2023-12-20T07:52:38;1211.03;;;999.90;;
38053;SDS011;23859;50.672;7.164;2023-12-20T07:55:04;1211.78;;;999.90;;
38053;SDS011;23859;50.672;7.164;2023-12-20T07:57:31;1218.85;;;999.90;;
38053;SDS011;23859;50.672;7.164;2023-12-20T07:59:57;1083.00;;;989.20;;
38053;SDS011;23859;50.672;7.164;2023-12-20T08:02:23;1204.15;;;999.90;;
38053;SDS011;23859;50.672;7.164;2023-12-20T08:04:49;1247.47;;;999.90;;
38053;SDS011;23859;50.672;7.164;2023-12-20T08:07:15;1256.00;;;999.90;;
38053;SDS011;23859;50.672;7.164;2023-12-20T08:09:41;1235.85;;;999.90;;
38053;SDS011;23859;50.672;7.164;2023-12-20T08:12:11;1212.13;;;999.90;;
38053;SDS011;23859;50.672;7.164;2023-12-20T08:14:37;1235.40;;;999.90;;
38053;SDS011;23859;50.672;7.164;2023-12-20T08:17:03;1241.68;;;999.90;;
38053;SDS011;23859;50.672;7.164;2023-12-20T08:19:29;1249.65;;;999.90;;
38053;SDS011;23859;50.672;7.164;2023-12-20T08:21:55;1235.32;;;999.90;;
38053;SDS011;23859;50.672;7.164;2023-12-20T08:24:21;1251.57;;;999.90;;
38053;SDS011;23859;50.672;7.164;2023-12-20T08:26:48;1225.50;;;999.90;;
38053;SDS011;23859;50.672;7.164;2023-12-20T08:29:14;1261.97;;;999.90;;
38053;SDS011;23859;50.672;7.164;2023-12-20T08:31:40;1264.80;;;999.90;;
38053;SDS011;23859;50.672;7.164;2023-12-20T08:34:06;1254.82;;;999.90;;
38053;SDS011;23859;50.672;7.164;2023-12-20T08:36:32;1261.60;;;999.90;;
38053;SDS011;23859;50.672;7.164;2023-12-20T08:39:01;1063.82;;;983.70;;
38053;SDS011;23859;50.672;7.164;2023-12-20T08:41:28;1035.45;;;956.70;;
38053;SDS011;23859;50.672;7.164;2023-12-20T08:43:57;1048.82;;;970.78;;
38053;SDS011;23859;50.672;7.164;2023-12-20T08:46:26;1048.53;;;970.05;;
38053;SDS011;23859;50.672;7.164;2023-12-20T08:48:55;1037.35;;;960.15;;
38053;SDS011;23859;50.672;7.164;2023-12-20T08:51:21;1038.13;;;962.58;;
38053;SDS011;23859;50.672;7.164;2023-12-20T08:53:48;1029.47;;;954.78;;
38053;SDS011;23859;50.672;7.164;2023-12-20T08:56:15;1040.13;;;964.03;;
38053;SDS011;23859;50.672;7.164;2023-12-20T08:58:41;1019.95;;;946.17;;
38053;SDS011;23859;50.672;7.164;2023-12-20T09:01:07;1066.53;;;985.92;;
38053;SDS011;23859;50.672;7.164;2023-12-20T09:03:36;1054.80;;;975.53;;
38053;SDS011;23859;50.672;7.164;2023-12-20T09:06:02;1054.60;;;977.95;;
38053;SDS011;23859;50.672;7.164;2023-12-20T09:08:29;1046.47;;;967.25;;
38053;SDS011;23859;50.672;7.164;2023-12-20T09:10:58;1035.68;;;959.13;;
38053;SDS011;23859;50.672;7.164;2023-12-20T09:13:24;1031.70;;;956.63;;
38053;SDS011;23859;50.672;7.164;2023-12-20T09:15:56;1030.80;;;957.03;;
38053;SDS011;23859;50.672;7.164;2023-12-20T09:18:23;1027.95;;;950.90;;
38053;SDS011;23859;50.672;7.164;2023-12-20T09:20:49;1052.07;;;972.33;;
38053;SDS011;23859;50.672;7.164;2023-12-20T09:23:18;1035.60;;;958.75;;
38053;SDS011;23859;50.672;7.164;2023-12-20T09:25:44;1031.13;;;954.42;;
38053;SDS011;23859;50.672;7.164;2023-12-20T09:28:10;1070.88;;;986.25;;
38053;SDS011;23859;50.672;7.164;2023-12-20T09:30:36;1054.07;;;975.10;;
38053;SDS011;23859;50.672;7.164;2023-12-20T09:33:04;1035.90;;;960.00;;
38053;SDS011;23859;50.672;7.164;2023-12-20T09:35:32;1029.07;;;952.15;;
38053;SDS011;23859;50.672;7.164;2023-12-20T09:37:58;1029.90;;;953.80;;
38053;SDS011;23859;50.672;7.164;2023-12-20T09:40:27;1046.53;;;970.15;;
38053;SDS011;23859;50.672;7.164;2023-12-20T09:42:57;1037.18;;;959.72;;
38053;SDS011;23859;50.672;7.164;2023-12-20T09:45:26;1049.40;;;971.55;;
38053;SDS011;23859;50.672;7.164;2023-12-20T09:47:53;1040.88;;;964.42;;
38053;SDS011;23859;50.672;7.164;2023-12-20T09:50:22;1053.00;;;974.72;;
38053;SDS011;23859;50.672;7.164;2023-12-20T09:52:51;1048.40;;;971.28;;
38053;SDS011;23859;50.672;7.164;2023-12-20T09:55:21;1002.92;;;928.65;;
38053;SDS011;23859;50.672;7.164;2023-12-20T09:57:48;1039.75;;;963.83;;
38053;SDS011;23859;50.672;7.164;2023-12-20T10:00:14;1025.35;;;949.63;;
38053;SDS011;23859;50.672;7.164;2023-12-20T10:03:01;1041.75;;;963.28;;
38053;SDS011;23859;50.672;7.164;2023-12-20T10:05:31;1021.20;;;945.55;;
38053;SDS011;23859;50.672;7.164;2023-12-20T10:07:58;1049.07;;;971.95;;
38053;SDS011;23859;50.672;7.164;2023-12-20T10:13:32;1042.25;;;965.65;;
38053;SDS011;23859;50.672;7.164;2023-12-20T10:15:59;1064.57;;;984.35;;
38053;SDS011;23859;50.672;7.164;2023-12-20T10:18:25;1089.60;;;999.90;;
38053;SDS011;23859;50.672;7.164;2023-12-20T10:20:53;1092.15;;;997.90;;
38053;SDS011;23859;50.672;7.164;2023-12-20T10:23:22;1082.50;;;996.15;;
38053;SDS011;23859;50.672;7.164;2023-12-20T10:25:58;1071.13;;;988.35;;
38053;SDS011;23859;50.672;7.164;2023-12-20T10:28:25;1083.97;;;997.67;;
38053;SDS011;23859;50.672;7.164;2023-12-20T10:30:54;1058.32;;;978.15;;
38053;SDS011;23859;50.672;7.164;2023-12-20T10:33:27;1107.30;;;999.90;;
38053;SDS011;23859;50.672;7.164;2023-12-20T10:35:54;1076.57;;;994.28;;
38053;SDS011;23859;50.672;7.164;2023-12-20T10:38:21;1064.30;;;984.83;;
38053;SDS011;23859;50.672;7.164;2023-12-20T10:40:47;1084.28;;;996.00;;
38053;SDS011;23859;50.672;7.164;2023-12-20T10:43:14;1115.78;;;999.90;;
38053;SDS011;23859;50.672;7.164;2023-12-20T10:45:43;1058.80;;;978.45;;
38053;SDS011;23859;50.672;7.164;2023-12-20T10:48:12;1078.15;;;993.83;;
38053;SDS011;23859;50.672;7.164;2023-12-20T10:50:40;1096.45;;;998.35;;
38053;SDS011;23859;50.672;7.164;2023-12-20T10:53:07;1096.38;;;999.90;;
38053;SDS011;23859;50.672;7.164;2023-12-20T10:55:33;1074.95;;;988.50;;
38053;SDS011;23859;50.672;7.164;2023-12-20T10:58:02;1079.15;;;994.00;;
38053;SDS011;23859;50.672;7.164;2023-12-20T11:00:35;1085.70;;;995.55;;
38053;SDS011;23859;50.672;7.164;2023-12-20T11:03:08;1079.90;;;995.67;;
38053;SDS011;23859;50.672;7.164;2023-12-20T11:05:38;1090.00;;;997.40;;
38053;SDS011;23859;50.672;7.164;2023-12-20T11:08:11;1090.13;;;999.38;;
38053;SDS011;23859;50.672;7.164;2023-12-20T11:10:54;1057.40;;;975.72;;
38053;SDS011;23859;50.672;7.164;2023-12-20T11:13:31;1086.00;;;996.88;;
38053;SDS011;23859;50.672;7.164;2023-12-20T11:16:00;1078.07;;;993.60;;
38053;SDS011;23859;50.672;7.164;2023-12-20T11:18:28;1082.38;;;993.15;;
38053;SDS011;23859;50.672;7.164;2023-12-20T11:21:01;1077.05;;;992.75;;
38053;SDS011;23859;50.672;7.164;2023-12-20T11:23:29;1091.70;;;998.83;;
38053;SDS011;23859;50.672;7.164;2023-12-20T11:25:59;1095.00;;;999.90;;
38053;SDS011;23859;50.672;7.164;2023-12-20T11:28:26;1089.35;;;997.25;;
38053;SDS011;23859;50.672;7.164;2023-12-20T11:30:55;1073.45;;;988.30;;
38053;SDS011;23859;50.672;7.164;2023-12-20T11:33:26;1127.60;;;999.90;;
38053;SDS011;23859;50.672;7.164;2023-12-20T11:35:56;1054.50;;;971.95;;
38053;SDS011;23859;50.672;7.164;2023-12-20T11:38:24;1190.57;;;999.90;;
38053;SDS011;23859;50.672;7.164;2023-12-20T11:40:51;1115.80;;;999.90;;
38053;SDS011;23859;50.672;7.164;2023-12-20T11:43:32;1124.03;;;999.90;;
38053;SDS011;23859;50.672;7.164;2023-12-20T11:46:10;1071.47;;;988.95;;
38053;SDS011;23859;50.672;7.164;2023-12-20T11:48:37;1079.28;;;992.50;;
38053;SDS011;23859;50.672;7.164;2023-12-20T11:51:11;1009.53;;;938.47;;
38053;SDS011;23859;50.672;7.164;2023-12-20T11:53:38;950.85;;;886.42;;
38053;SDS011;23859;50.672;7.164;2023-12-20T11:56:07;945.63;;;881.30;;
38053;SDS011;23859;50.672;7.164;2023-12-20T11:58:33;983.35;;;914.88;;
38053;SDS011;23859;50.672;7.164;2023-12-20T12:01:00;983.80;;;914.20;;
38053;SDS011;23859;50.672;7.164;2023-12-20T12:03:29;939.53;;;873.70;;
38053;SDS011;23859;50.672;7.164;2023-12-20T12:05:58;967.53;;;899.50;;
38053;SDS011;23859;50.672;7.164;2023-12-20T12:08:25;1003.67;;;932.72;;
38053;SDS011;23859;50.672;7.164;2023-12-20T12:10:51;1010.47;;;937.67;;
38053;SDS011;23859;50.672;7.164;2023-12-20T12:13:18;1017.60;;;945.45;;
38053;SDS011;23859;50.672;7.164;2023-12-20T12:15:44;1012.15;;;940.88;;
38053;SDS011;23859;50.672;7.164;2023-12-20T12:18:10;972.03;;;903.75;;
38053;SDS011;23859;50.672;7.164;2023-12-20T12:20:40;995.88;;;925.20;;
38053;SDS011;23859;50.672;7.164;2023-12-20T12:23:06;965.85;;;900.25;;
38053;SDS011;23859;50.672;7.164;2023-12-20T12:25:35;974.42;;;904.70;;
38053;SDS011;23859;50.672;7.164;2023-12-20T12:28:07;961.30;;;894.67;;
38053;SDS011;23859;50.672;7.164;2023-12-20T12:30:33;975.05;;;907.33;;
38053;SDS011;23859;50.672;7.164;2023-12-20T12:33:02;1009.70;;;940.70;;
38053;SDS011;23859;50.672;7.164;2023-12-20T12:35:29;1005.50;;;934.72;;
38053;SDS011;23859;50.672;7.164;2023-12-20T12:37:55;983.70;;;912.00;;
38053;SDS011;23859;50.672;7.164;2023-12-20T12:40:24;989.13;;;917.38;;
38053;SDS011;23859;50.672;7.164;2023-12-20T12:42:53;983.92;;;915.22;;
38053;SDS011;23859;50.672;7.164;2023-12-20T12:45:21;987.22;;;916.83;;
38053;SDS011;23859;50.672;7.164;2023-12-20T12:47:47;993.25;;;922.25;;
38053;SDS011;23859;50.672;7.164;2023-12-20T12:50:14;988.63;;;919.40;;
38053;SDS011;23859;50.672;7.164;2023-12-20T12:52:40;1205.13;;;999.90;;
38053;SDS011;23859;50.672;7.164;2023-12-20T12:55:06;1149.03;;;999.90;;
38053;SDS011;23859;50.672;7.164;2023-12-20T12:57:33;1183.30;;;999.90;;
38053;SDS011;23859;50.672;7.164;2023-12-20T12:59:59;1149.82;;;999.90;;
38053;SDS011;23859;50.672;7.164;2023-12-20T13:02:28;1195.95;;;999.90;;
38053;SDS011;23859;50.672;7.164;2023-12-20T13:04:54;1166.15;;;999.90;;
38053;SDS011;23859;50.672;7.164;2023-12-20T13:07:20;1147.95;;;999.90;;
38053;SDS011;23859;50.672;7.164;2023-12-20T13:09:46;1144.72;;;999.90;;
38053;SDS011;23859;50.672;7.164;2023-12-20T13:12:12;1161.88;;;999.90;;
38053;SDS011;23859;50.672;7.164;2023-12-20T13:14:38;1126.10;;;999.90;;
38053;SDS011;23859;50.672;7.164;2023-12-20T13:17:05;1120.00;;;999.90;;
38053;SDS011;23859;50.672;7.164;2023-12-20T13:19:34;1105.97;;;999.90;;
38053;SDS011;23859;50.672;7.164;2023-12-20T13:22:00;1135.32;;;999.90;;
38053;SDS011;23859;50.672;7.164;2023-12-20T13:24:26;1180.82;;;999.90;;
38053;SDS011;23859;50.672;7.164;2023-12-20T13:26:52;1165.15;;;999.90;;
38053;SDS011;23859;50.672;7.164;2023-12-20T13:29:18;1161.85;;;999.90;;
38053;SDS011;23859;50.672;7.164;2023-12-20T13:31:47;1165.60;;;999.90;;
38053;SDS011;23859;50.672;7.164;2023-12-20T13:34:14;1173.38;;;999.90;;
38053;SDS011;23859;50.672;7.164;2023-12-20T13:36:42;1144.72;;;999.90;;
38053;SDS011;23859;50.672;7.164;2023-12-20T13:39:10;1155.53;;;999.90;;
38053;SDS011;23859;50.672;7.164;2023-12-20T13:41:37;1176.30;;;999.90;;
38053;SDS011;23859;50.672;7.164;2023-12-20T13:44:06;1210.28;;;999.90;;
38053;SDS011;23859;50.672;7.164;2023-12-20T13:46:32;1165.40;;;999.90;;
38053;SDS011;23859;50.672;7.164;2023-12-20T13:48:58;1174.10;;;999.90;;